sensor_id;sensor_type;location;lat;lon;timestamp;P1;durP1;ratioP1;P2;durP2;ratioP2
6259;SDS011;3163;51.516;4.000;2022-11-15T00:02:21;11.13;;;7.63;;
6259;SDS011;3163;51.516;4.000;2022-11-15T00:04:47;11.57;;;6.88;;
6259;SDS011;3163;51.516;4.000;2022-11-15T00:07:13;14.47;;;6.40;;
6259;SDS011;3163;51.516;4.000;2022-11-15T00:09:39;9.00;;;5.63;;
6259;SDS011;3163;51.516;4.000;2022-11-15T00:12:05;9.00;;;6.00;;
6259;SDS011;3163;51.516;4.000;2022-11-15T00:14:31;12.57;;;6.50;;
6259;SDS011;3163;51.516;4.000;2022-11-15T00:16:57;12.77;;;7.03;;
6259;SDS011;3163;51.516;4.000;2022-11-15T00:19:23;10.87;;;6.67;;
6259;SDS011;3163;51.516;4.000;2022-11-15T00:21:49;11.33;;;6.27;;
6259;SDS011;3163;51.516;4.000;2022-11-15T00:24:15;10.40;;;5.77;;
6259;SDS011;3163;51.516;4.000;2022-11-15T00:26:41;8.53;;;5.87;;
6259;SDS011;3163;51.516;4.000;2022-11-15T00:29:07;10.87;;;6.67;;
6259;SDS011;3163;51.516;4.000;2022-11-15T00:31:33;9.57;;;7.13;;
6259;SDS011;3163;51.516;4.000;2022-11-15T00:33:59;8.33;;;6.40;;
6259;SDS011;3163;51.516;4.000;2022-11-15T00:36:25;12.57;;;7.37;;
6259;SDS011;3163;51.516;4.000;2022-11-15T00:38:50;11.50;;;7.00;;
6259;SDS011;3163;51.516;4.000;2022-11-15T00:41:16;8.60;;;5.60;;
6259;SDS011;3163;51.516;4.000;2022-11-15T00:43:42;10.90;;;6.50;;
6259;SDS011;3163;51.516;4.000;2022-11-15T00:46:09;11.30;;;6.17;;
6259;SDS011;3163;51.516;4.000;2022-11-15T00:48:35;12.20;;;6.50;;
6259;SDS011;3163;51.516;4.000;2022-11-15T00:51:01;11.67;;;6.23;;
6259;SDS011;3163;51.516;4.000;2022-11-15T00:53:27;10.50;;;6.60;;
6259;SDS011;3163;51.516;4.000;2022-11-15T00:55:53;10.77;;;5.90;;
6259;SDS011;3163;51.516;4.000;2022-11-15T00:58:19;12.47;;;6.33;;
6259;SDS011;3163;51.516;4.000;2022-11-15T01:00:45;13.80;;;8.68;;
6259;SDS011;3163;51.516;4.000;2022-11-15T01:03:11;8.20;;;5.87;;
6259;SDS011;3163;51.516;4.000;2022-11-15T01:05:37;11.00;;;6.40;;
6259;SDS011;3163;51.516;4.000;2022-11-15T01:08:03;13.30;;;7.90;;
6259;SDS011;3163;51.516;4.000;2022-11-15T01:10:29;9.40;;;5.80;;
6259;SDS011;3163;51.516;4.000;2022-11-15T01:12:55;9.60;;;5.77;;
6259;SDS011;3163;51.516;4.000;2022-11-15T01:15:21;6.43;;;5.37;;
6259;SDS011;3163;51.516;4.000;2022-11-15T01:17:47;7.90;;;5.40;;
6259;SDS011;3163;51.516;4.000;2022-11-15T01:20:13;9.43;;;5.40;;
6259;SDS011;3163;51.516;4.000;2022-11-15T01:22:39;8.80;;;6.17;;
6259;SDS011;3163;51.516;4.000;2022-11-15T01:25:05;8.87;;;6.10;;
6259;SDS011;3163;51.516;4.000;2022-11-15T01:27:31;7.20;;;4.90;;
6259;SDS011;3163;51.516;4.000;2022-11-15T01:29:57;7.53;;;5.70;;
6259;SDS011;3163;51.516;4.000;2022-11-15T01:32:23;9.07;;;5.63;;
6259;SDS011;3163;51.516;4.000;2022-11-15T01:34:49;6.50;;;4.70;;
6259;SDS011;3163;51.516;4.000;2022-11-15T01:37:15;8.37;;;4.60;;
6259;SDS011;3163;51.516;4.000;2022-11-15T01:39:41;9.43;;;5.70;;
6259;SDS011;3163;51.516;4.000;2022-11-15T01:42:11;6.37;;;4.93;;
6259;SDS011;3163;51.516;4.000;2022-11-15T01:44:39;7.03;;;5.23;;
6259;SDS011;3163;51.516;4.000;2022-11-15T01:47:07;12.17;;;5.13;;
6259;SDS011;3163;51.516;4.000;2022-11-15T01:49:35;6.63;;;5.13;;
6259;SDS011;3163;51.516;4.000;2022-11-15T01:52:03;6.80;;;5.17;;
6259;SDS011;3163;51.516;4.000;2022-11-15T01:54:30;6.77;;;4.47;;
6259;SDS011;3163;51.516;4.000;2022-11-15T01:56:59;8.63;;;4.83;;
6259;SDS011;3163;51.516;4.000;2022-11-15T01:59:27;7.87;;;4.40;;
6259;SDS011;3163;51.516;4.000;2022-11-15T02:01:53;6.63;;;5.07;;
6259;SDS011;3163;51.516;4.000;2022-11-15T02:04:26;5.40;;;4.47;;
6259;SDS011;3163;51.516;4.000;2022-11-15T02:06:52;6.57;;;4.10;;
6259;SDS011;3163;51.516;4.000;2022-11-15T02:09:18;6.37;;;4.27;;
6259;SDS011;3163;51.516;4.000;2022-11-15T02:11:44;9.10;;;4.43;;
6259;SDS011;3163;51.516;4.000;2022-11-15T02:14:11;6.87;;;3.80;;
6259;SDS011;3163;51.516;4.000;2022-11-15T02:27:21;5.27;;;3.63;;
6259;SDS011;3163;51.516;4.000;2022-11-15T02:35:12;6.33;;;3.57;;
6259;SDS011;3163;51.516;4.000;2022-11-15T02:37:43;4.03;;;3.57;;
6259;SDS011;3163;51.516;4.000;2022-11-15T02:40:19;5.17;;;3.40;;
6259;SDS011;3163;51.516;4.000;2022-11-15T02:42:50;8.43;;;3.20;;
6259;SDS011;3163;51.516;4.000;2022-11-15T02:45:37;6.17;;;3.23;;
6259;SDS011;3163;51.516;4.000;2022-11-15T02:48:05;4.20;;;2.87;;
6259;SDS011;3163;51.516;4.000;2022-11-15T02:50:32;4.57;;;2.63;;
6259;SDS011;3163;51.516;4.000;2022-11-15T02:52:58;3.20;;;2.90;;
6259;SDS011;3163;51.516;4.000;2022-11-15T02:55:38;5.13;;;2.80;;
6259;SDS011;3163;51.516;4.000;2022-11-15T02:58:19;3.33;;;2.87;;
6259;SDS011;3163;51.516;4.000;2022-11-15T03:03:34;2.47;;;2.27;;
6259;SDS011;3163;51.516;4.000;2022-11-15T03:06:05;3.47;;;2.43;;
6259;SDS011;3163;51.516;4.000;2022-11-15T03:11:11;4.97;;;2.53;;
6259;SDS011;3163;51.516;4.000;2022-11-15T03:18:59;6.90;;;2.57;;
6259;SDS011;3163;51.516;4.000;2022-11-15T03:21:28;5.30;;;2.77;;
6259;SDS011;3163;51.516;4.000;2022-11-15T03:23:55;5.33;;;3.00;;
6259;SDS011;3163;51.516;4.000;2022-11-15T03:26:24;4.50;;;2.57;;
6259;SDS011;3163;51.516;4.000;2022-11-15T03:28:52;2.87;;;2.57;;
6259;SDS011;3163;51.516;4.000;2022-11-15T03:31:19;2.20;;;2.00;;
6259;SDS011;3163;51.516;4.000;2022-11-15T03:34:06;5.27;;;2.67;;
6259;SDS011;3163;51.516;4.000;2022-11-15T03:36:34;2.20;;;1.90;;
6259;SDS011;3163;51.516;4.000;2022-11-15T03:39:06;6.00;;;1.97;;
6259;SDS011;3163;51.516;4.000;2022-11-15T03:46:42;4.37;;;2.00;;
6259;SDS011;3163;51.516;4.000;2022-11-15T03:49:12;2.77;;;1.70;;
6259;SDS011;3163;51.516;4.000;2022-11-15T03:51:39;5.23;;;2.00;;
6259;SDS011;3163;51.516;4.000;2022-11-15T03:54:05;1.60;;;1.50;;
6259;SDS011;3163;51.516;4.000;2022-11-15T03:56:31;2.20;;;1.80;;
6259;SDS011;3163;51.516;4.000;2022-11-15T03:58:57;5.17;;;2.60;;
6259;SDS011;3163;51.516;4.000;2022-11-15T04:01:23;6.00;;;2.47;;
6259;SDS011;3163;51.516;4.000;2022-11-15T04:03:49;3.60;;;2.10;;
6259;SDS011;3163;51.516;4.000;2022-11-15T04:06:15;2.00;;;1.60;;
6259;SDS011;3163;51.516;4.000;2022-11-15T04:08:41;1.67;;;1.57;;
6259;SDS011;3163;51.516;4.000;2022-11-15T04:11:07;1.80;;;1.70;;
6259;SDS011;3163;51.516;4.000;2022-11-15T04:13:33;2.23;;;1.70;;
6259;SDS011;3163;51.516;4.000;2022-11-15T04:15:59;3.83;;;1.90;;
6259;SDS011;3163;51.516;4.000;2022-11-15T04:18:25;4.60;;;1.80;;
6259;SDS011;3163;51.516;4.000;2022-11-15T04:20:51;2.97;;;1.60;;
6259;SDS011;3163;51.516;4.000;2022-11-15T04:23:36;2.63;;;1.87;;
6259;SDS011;3163;51.516;4.000;2022-11-15T04:26:21;2.63;;;1.23;;
6259;SDS011;3163;51.516;4.000;2022-11-15T04:28:47;3.67;;;1.50;;
6259;SDS011;3163;51.516;4.000;2022-11-15T04:31:32;12.60;;;2.30;;
6259;SDS011;3163;51.516;4.000;2022-11-15T04:33:58;3.00;;;1.60;;
6259;SDS011;3163;51.516;4.000;2022-11-15T04:36:24;1.50;;;1.13;;
6259;SDS011;3163;51.516;4.000;2022-11-15T04:39:09;2.47;;;1.40;;
6259;SDS011;3163;51.516;4.000;2022-11-15T04:41:35;3.80;;;1.80;;
6259;SDS011;3163;51.516;4.000;2022-11-15T04:44:01;2.17;;;1.47;;
6259;SDS011;3163;51.516;4.000;2022-11-15T04:46:27;1.80;;;1.17;;
6259;SDS011;3163;51.516;4.000;2022-11-15T04:48:54;1.70;;;1.40;;
6259;SDS011;3163;51.516;4.000;2022-11-15T04:51:20;4.30;;;1.80;;
6259;SDS011;3163;51.516;4.000;2022-11-15T04:53:46;1.93;;;1.37;;
6259;SDS011;3163;51.516;4.000;2022-11-15T04:56:12;1.37;;;1.10;;
6259;SDS011;3163;51.516;4.000;2022-11-15T04:58:38;3.07;;;1.63;;
6259;SDS011;3163;51.516;4.000;2022-11-15T05:01:07;2.80;;;1.27;;
6259;SDS011;3163;51.516;4.000;2022-11-15T05:03:33;1.43;;;1.33;;
6259;SDS011;3163;51.516;4.000;2022-11-15T05:06:18;3.47;;;1.73;;
6259;SDS011;3163;51.516;4.000;2022-11-15T05:08:44;1.20;;;1.10;;
6259;SDS011;3163;51.516;4.000;2022-11-15T05:11:10;3.13;;;1.57;;
6259;SDS011;3163;51.516;4.000;2022-11-15T05:13:36;3.57;;;1.00;;
6259;SDS011;3163;51.516;4.000;2022-11-15T05:16:02;1.77;;;1.33;;
6259;SDS011;3163;51.516;4.000;2022-11-15T05:18:28;1.20;;;1.10;;
6259;SDS011;3163;51.516;4.000;2022-11-15T05:20:54;2.00;;;1.50;;
6259;SDS011;3163;51.516;4.000;2022-11-15T05:23:20;2.07;;;1.33;;
6259;SDS011;3163;51.516;4.000;2022-11-15T05:25:46;5.60;;;1.20;;
6259;SDS011;3163;51.516;4.000;2022-11-15T05:28:12;1.53;;;1.40;;
6259;SDS011;3163;51.516;4.000;2022-11-15T05:30:38;1.43;;;1.00;;
6259;SDS011;3163;51.516;4.000;2022-11-15T05:33:04;3.37;;;1.33;;
6259;SDS011;3163;51.516;4.000;2022-11-15T05:35:31;2.57;;;1.57;;
6259;SDS011;3163;51.516;4.000;2022-11-15T05:37:59;3.87;;;1.47;;
6259;SDS011;3163;51.516;4.000;2022-11-15T05:40:26;3.93;;;1.30;;
6259;SDS011;3163;51.516;4.000;2022-11-15T05:42:52;3.63;;;1.60;;
6259;SDS011;3163;51.516;4.000;2022-11-15T05:45:18;1.90;;;1.10;;
6259;SDS011;3163;51.516;4.000;2022-11-15T05:47:45;3.40;;;1.23;;
6259;SDS011;3163;51.516;4.000;2022-11-15T05:50:12;3.60;;;0.97;;
6259;SDS011;3163;51.516;4.000;2022-11-15T05:52:38;1.93;;;0.97;;
6259;SDS011;3163;51.516;4.000;2022-11-15T05:55:04;2.10;;;1.00;;
6259;SDS011;3163;51.516;4.000;2022-11-15T05:57:31;5.60;;;1.30;;
6259;SDS011;3163;51.516;4.000;2022-11-15T05:59:56;1.20;;;1.10;;
6259;SDS011;3163;51.516;4.000;2022-11-15T06:02:23;3.47;;;1.10;;
6259;SDS011;3163;51.516;4.000;2022-11-15T06:04:49;3.63;;;1.13;;
6259;SDS011;3163;51.516;4.000;2022-11-15T06:07:15;2.30;;;1.00;;
6259;SDS011;3163;51.516;4.000;2022-11-15T06:09:41;1.10;;;1.00;;
6259;SDS011;3163;51.516;4.000;2022-11-15T06:12:07;2.67;;;1.10;;
6259;SDS011;3163;51.516;4.000;2022-11-15T06:14:33;2.37;;;1.07;;
6259;SDS011;3163;51.516;4.000;2022-11-15T06:16:59;2.03;;;1.20;;
6259;SDS011;3163;51.516;4.000;2022-11-15T06:19:25;1.60;;;1.23;;
6259;SDS011;3163;51.516;4.000;2022-11-15T06:21:51;2.43;;;0.97;;
6259;SDS011;3163;51.516;4.000;2022-11-15T06:24:17;4.85;;;1.75;;
6259;SDS011;3163;51.516;4.000;2022-11-15T06:26:43;1.60;;;1.10;;
6259;SDS011;3163;51.516;4.000;2022-11-15T06:29:09;1.17;;;0.90;;
6259;SDS011;3163;51.516;4.000;2022-11-15T06:31:35;2.42;;;1.42;;
6259;SDS011;3163;51.516;4.000;2022-11-15T06:34:01;2.07;;;0.80;;
6259;SDS011;3163;51.516;4.000;2022-11-15T06:36:27;1.60;;;1.17;;
6259;SDS011;3163;51.516;4.000;2022-11-15T06:38:53;1.20;;;1.10;;
6259;SDS011;3163;51.516;4.000;2022-11-15T06:41:19;2.23;;;1.40;;
6259;SDS011;3163;51.516;4.000;2022-11-15T06:43:46;2.17;;;1.33;;
6259;SDS011;3163;51.516;4.000;2022-11-15T06:46:12;1.33;;;1.13;;
6259;SDS011;3163;51.516;4.000;2022-11-15T06:48:38;2.90;;;1.20;;
6259;SDS011;3163;51.516;4.000;2022-11-15T06:51:04;2.63;;;1.20;;
6259;SDS011;3163;51.516;4.000;2022-11-15T06:53:30;5.10;;;1.90;;
6259;SDS011;3163;51.516;4.000;2022-11-15T06:56:00;1.00;;;1.00;;
6259;SDS011;3163;51.516;4.000;2022-11-15T06:58:26;1.70;;;1.27;;
6259;SDS011;3163;51.516;4.000;2022-11-15T07:00:52;2.50;;;1.07;;
6259;SDS011;3163;51.516;4.000;2022-11-15T07:03:19;1.87;;;1.20;;
6259;SDS011;3163;51.516;4.000;2022-11-15T07:05:54;1.97;;;1.23;;
6259;SDS011;3163;51.516;4.000;2022-11-15T07:08:21;2.23;;;1.00;;
6259;SDS011;3163;51.516;4.000;2022-11-15T07:10:47;3.07;;;1.67;;
6259;SDS011;3163;51.516;4.000;2022-11-15T07:13:13;2.83;;;1.27;;
6259;SDS011;3163;51.516;4.000;2022-11-15T07:15:39;2.40;;;1.30;;
6259;SDS011;3163;51.516;4.000;2022-11-15T07:18:05;2.20;;;1.63;;
6259;SDS011;3163;51.516;4.000;2022-11-15T07:20:31;2.00;;;1.03;;
6259;SDS011;3163;51.516;4.000;2022-11-15T07:23:00;5.23;;;1.50;;
6259;SDS011;3163;51.516;4.000;2022-11-15T07:25:27;2.27;;;1.27;;
6259;SDS011;3163;51.516;4.000;2022-11-15T07:27:56;1.85;;;1.45;;
6259;SDS011;3163;51.516;4.000;2022-11-15T07:30:22;1.87;;;1.50;;
6259;SDS011;3163;51.516;4.000;2022-11-15T07:32:52;4.17;;;1.10;;
6259;SDS011;3163;51.516;4.000;2022-11-15T07:35:18;6.03;;;2.40;;
6259;SDS011;3163;51.516;4.000;2022-11-15T07:37:44;4.03;;;1.43;;
6259;SDS011;3163;51.516;4.000;2022-11-15T07:40:18;2.17;;;1.20;;
6259;SDS011;3163;51.516;4.000;2022-11-15T07:42:44;2.57;;;1.00;;
6259;SDS011;3163;51.516;4.000;2022-11-15T07:45:21;1.90;;;1.63;;
6259;SDS011;3163;51.516;4.000;2022-11-15T07:47:48;2.70;;;1.30;;
6259;SDS011;3163;51.516;4.000;2022-11-15T07:50:15;4.93;;;1.63;;
6259;SDS011;3163;51.516;4.000;2022-11-15T07:52:41;3.17;;;1.30;;
6259;SDS011;3163;51.516;4.000;2022-11-15T07:55:07;1.50;;;1.13;;
6259;SDS011;3163;51.516;4.000;2022-11-15T07:57:34;2.50;;;0.97;;
6259;SDS011;3163;51.516;4.000;2022-11-15T08:00:00;2.90;;;1.10;;
6259;SDS011;3163;51.516;4.000;2022-11-15T08:02:26;2.23;;;1.23;;
6259;SDS011;3163;51.516;4.000;2022-11-15T08:04:52;1.87;;;1.20;;
6259;SDS011;3163;51.516;4.000;2022-11-15T08:07:18;1.90;;;1.40;;
6259;SDS011;3163;51.516;4.000;2022-11-15T08:09:44;1.97;;;1.53;;
6259;SDS011;3163;51.516;4.000;2022-11-15T08:12:10;3.60;;;1.43;;
6259;SDS011;3163;51.516;4.000;2022-11-15T08:14:36;2.03;;;1.63;;
6259;SDS011;3163;51.516;4.000;2022-11-15T08:17:02;3.10;;;1.57;;
6259;SDS011;3163;51.516;4.000;2022-11-15T08:19:28;3.23;;;1.33;;
6259;SDS011;3163;51.516;4.000;2022-11-15T08:21:54;1.33;;;1.03;;
6259;SDS011;3163;51.516;4.000;2022-11-15T08:24:20;3.77;;;1.90;;
6259;SDS011;3163;51.516;4.000;2022-11-15T08:26:46;2.47;;;1.20;;
6259;SDS011;3163;51.516;4.000;2022-11-15T08:29:12;0.90;;;0.90;;
6259;SDS011;3163;51.516;4.000;2022-11-15T08:31:38;1.10;;;1.00;;
6259;SDS011;3163;51.516;4.000;2022-11-15T08:34:04;2.67;;;0.90;;
6259;SDS011;3163;51.516;4.000;2022-11-15T08:36:30;1.70;;;1.07;;
6259;SDS011;3163;51.516;4.000;2022-11-15T08:38:56;1.07;;;0.83;;
6259;SDS011;3163;51.516;4.000;2022-11-15T08:41:25;1.70;;;1.17;;
6259;SDS011;3163;51.516;4.000;2022-11-15T08:43:52;3.63;;;1.10;;
6259;SDS011;3163;51.516;4.000;2022-11-15T08:46:18;3.70;;;1.20;;
6259;SDS011;3163;51.516;4.000;2022-11-15T08:48:44;2.00;;;0.87;;
6259;SDS011;3163;51.516;4.000;2022-11-15T08:51:10;0.90;;;0.90;;
6259;SDS011;3163;51.516;4.000;2022-11-15T08:53:36;3.03;;;0.83;;
6259;SDS011;3163;51.516;4.000;2022-11-15T08:56:02;2.40;;;0.90;;
6259;SDS011;3163;51.516;4.000;2022-11-15T08:58:28;2.53;;;1.33;;
6259;SDS011;3163;51.516;4.000;2022-11-15T09:00:54;0.70;;;0.60;;
6259;SDS011;3163;51.516;4.000;2022-11-15T09:03:20;1.03;;;0.80;;
6259;SDS011;3163;51.516;4.000;2022-11-15T09:05:46;2.27;;;0.97;;
6259;SDS011;3163;51.516;4.000;2022-11-15T09:08:12;1.10;;;1.10;;
6259;SDS011;3163;51.516;4.000;2022-11-15T09:10:38;6.20;;;1.30;;
6259;SDS011;3163;51.516;4.000;2022-11-15T09:13:04;0.90;;;0.77;;
6259;SDS011;3163;51.516;4.000;2022-11-15T09:15:30;0.90;;;0.70;;
6259;SDS011;3163;51.516;4.000;2022-11-15T09:17:59;1.80;;;0.90;;
6259;SDS011;3163;51.516;4.000;2022-11-15T09:20:25;2.37;;;1.10;;
6259;SDS011;3163;51.516;4.000;2022-11-15T09:22:51;3.20;;;1.17;;
6259;SDS011;3163;51.516;4.000;2022-11-15T09:25:17;2.03;;;0.83;;
6259;SDS011;3163;51.516;4.000;2022-11-15T09:27:43;1.20;;;0.70;;
6259;SDS011;3163;51.516;4.000;2022-11-15T09:30:09;1.93;;;0.70;;
6259;SDS011;3163;51.516;4.000;2022-11-15T09:32:35;1.87;;;1.10;;
6259;SDS011;3163;51.516;4.000;2022-11-15T09:35:01;0.77;;;0.77;;
6259;SDS011;3163;51.516;4.000;2022-11-15T09:37:27;2.47;;;0.93;;
6259;SDS011;3163;51.516;4.000;2022-11-15T09:39:53;1.90;;;0.80;;
6259;SDS011;3163;51.516;4.000;2022-11-15T09:42:30;2.83;;;0.93;;
6259;SDS011;3163;51.516;4.000;2022-11-15T09:50:08;2.57;;;1.53;;
6259;SDS011;3163;51.516;4.000;2022-11-15T09:52:34;1.85;;;0.93;;
6259;SDS011;3163;51.516;4.000;2022-11-15T09:55:01;1.90;;;1.00;;
6259;SDS011;3163;51.516;4.000;2022-11-15T09:57:38;3.87;;;0.87;;
6259;SDS011;3163;51.516;4.000;2022-11-15T10:00:08;2.13;;;1.03;;
6259;SDS011;3163;51.516;4.000;2022-11-15T10:05:19;4.33;;;1.33;;
6259;SDS011;3163;51.516;4.000;2022-11-15T10:10:38;3.50;;;1.20;;
6259;SDS011;3163;51.516;4.000;2022-11-15T10:13:06;1.03;;;0.63;;
6259;SDS011;3163;51.516;4.000;2022-11-15T10:15:33;2.13;;;0.97;;
6259;SDS011;3163;51.516;4.000;2022-11-15T10:23:10;1.40;;;0.93;;
6259;SDS011;3163;51.516;4.000;2022-11-15T10:25:36;3.97;;;1.00;;
6259;SDS011;3163;51.516;4.000;2022-11-15T10:31:40;0.63;;;0.63;;
6259;SDS011;3163;51.516;4.000;2022-11-15T10:34:19;1.10;;;1.00;;
6259;SDS011;3163;51.516;4.000;2022-11-15T10:36:46;2.77;;;0.70;;
6259;SDS011;3163;51.516;4.000;2022-11-15T10:39:12;1.20;;;0.70;;
6259;SDS011;3163;51.516;4.000;2022-11-15T10:41:39;3.70;;;0.80;;
6259;SDS011;3163;51.516;4.000;2022-11-15T10:46:32;1.77;;;0.80;;
6259;SDS011;3163;51.516;4.000;2022-11-15T10:51:47;1.37;;;0.80;;
6259;SDS011;3163;51.516;4.000;2022-11-15T10:54:14;5.23;;;0.90;;
6259;SDS011;3163;51.516;4.000;2022-11-15T10:56:42;4.72;;;1.05;;
6259;SDS011;3163;51.516;4.000;2022-11-15T10:59:14;1.33;;;0.80;;
6259;SDS011;3163;51.516;4.000;2022-11-15T11:01:47;5.60;;;0.90;;
6259;SDS011;3163;51.516;4.000;2022-11-15T11:04:13;1.50;;;0.63;;
6259;SDS011;3163;51.516;4.000;2022-11-15T11:06:53;0.67;;;0.50;;
6259;SDS011;3163;51.516;4.000;2022-11-15T11:09:38;0.90;;;0.60;;
6259;SDS011;3163;51.516;4.000;2022-11-15T11:12:10;2.67;;;0.87;;
6259;SDS011;3163;51.516;4.000;2022-11-15T11:14:37;3.50;;;0.60;;
6259;SDS011;3163;51.516;4.000;2022-11-15T11:17:16;1.83;;;0.80;;
6259;SDS011;3163;51.516;4.000;2022-11-15T11:19:48;1.23;;;0.50;;
6259;SDS011;3163;51.516;4.000;2022-11-15T11:27:42;2.53;;;0.70;;
6259;SDS011;3163;51.516;4.000;2022-11-15T11:30:10;5.63;;;0.70;;
6259;SDS011;3163;51.516;4.000;2022-11-15T11:50:36;3.05;;;0.80;;
6259;SDS011;3163;51.516;4.000;2022-11-15T11:53:04;1.23;;;0.77;;
6259;SDS011;3163;51.516;4.000;2022-11-15T11:55:50;1.07;;;0.60;;
6259;SDS011;3163;51.516;4.000;2022-11-15T11:58:28;2.05;;;0.70;;
6259;SDS011;3163;51.516;4.000;2022-11-15T12:03:41;1.80;;;0.97;;
6259;SDS011;3163;51.516;4.000;2022-11-15T12:11:20;5.80;;;1.37;;
6259;SDS011;3163;51.516;4.000;2022-11-15T12:13:48;0.90;;;0.50;;
6259;SDS011;3163;51.516;4.000;2022-11-15T12:16:27;0.77;;;0.43;;
6259;SDS011;3163;51.516;4.000;2022-11-15T12:18:54;2.30;;;0.80;;
6259;SDS011;3163;51.516;4.000;2022-11-15T12:24:08;3.90;;;2.07;;
6259;SDS011;3163;51.516;4.000;2022-11-15T12:26:41;1.37;;;0.83;;
6259;SDS011;3163;51.516;4.000;2022-11-15T12:29:15;5.63;;;1.30;;
6259;SDS011;3163;51.516;4.000;2022-11-15T12:31:47;2.13;;;1.23;;
6259;SDS011;3163;51.516;4.000;2022-11-15T12:36:45;2.00;;;0.87;;
6259;SDS011;3163;51.516;4.000;2022-11-15T12:39:12;6.90;;;0.80;;
6259;SDS011;3163;51.516;4.000;2022-11-15T12:41:39;3.77;;;0.97;;
6259;SDS011;3163;51.516;4.000;2022-11-15T13:04:46;3.23;;;0.87;;
6259;SDS011;3163;51.516;4.000;2022-11-15T13:10:46;3.90;;;0.90;;
6259;SDS011;3163;51.516;4.000;2022-11-15T13:20:52;2.30;;;0.90;;
6259;SDS011;3163;51.516;4.000;2022-11-15T13:23:18;3.53;;;1.17;;
6259;SDS011;3163;51.516;4.000;2022-11-15T13:30:52;2.37;;;1.10;;
6259;SDS011;3163;51.516;4.000;2022-11-15T13:33:20;8.90;;;1.33;;
6259;SDS011;3163;51.516;4.000;2022-11-15T13:35:48;3.30;;;1.40;;
6259;SDS011;3163;51.516;4.000;2022-11-15T13:38:19;2.63;;;1.33;;
6259;SDS011;3163;51.516;4.000;2022-11-15T13:40:45;2.60;;;0.70;;
6259;SDS011;3163;51.516;4.000;2022-11-15T13:43:31;1.83;;;0.93;;
6259;SDS011;3163;51.516;4.000;2022-11-15T13:48:45;4.27;;;1.27;;
6259;SDS011;3163;51.516;4.000;2022-11-15T13:51:23;3.07;;;0.93;;
6259;SDS011;3163;51.516;4.000;2022-11-15T13:54:33;2.95;;;1.00;;
6259;SDS011;3163;51.516;4.000;2022-11-15T13:56:47;5.03;;;1.03;;
6259;SDS011;3163;51.516;4.000;2022-11-15T13:59:16;2.40;;;0.97;;
6259;SDS011;3163;51.516;4.000;2022-11-15T14:01:44;2.50;;;1.10;;
6259;SDS011;3163;51.516;4.000;2022-11-15T14:04:11;4.03;;;1.00;;
6259;SDS011;3163;51.516;4.000;2022-11-15T14:06:44;0.80;;;0.70;;
6259;SDS011;3163;51.516;4.000;2022-11-15T14:11:36;7.07;;;1.10;;
6259;SDS011;3163;51.516;4.000;2022-11-15T14:16:39;0.60;;;0.60;;
6259;SDS011;3163;51.516;4.000;2022-11-15T14:19:06;2.87;;;0.97;;
6259;SDS011;3163;51.516;4.000;2022-11-15T14:21:32;3.93;;;1.20;;
6259;SDS011;3163;51.516;4.000;2022-11-15T14:24:17;3.30;;;0.80;;
6259;SDS011;3163;51.516;4.000;2022-11-15T14:26:44;1.83;;;1.13;;
6259;SDS011;3163;51.516;4.000;2022-11-15T14:29:26;1.37;;;0.87;;
6259;SDS011;3163;51.516;4.000;2022-11-15T14:31:53;3.27;;;1.10;;
6259;SDS011;3163;51.516;4.000;2022-11-15T14:34:19;2.10;;;0.87;;
6259;SDS011;3163;51.516;4.000;2022-11-15T14:36:47;1.63;;;0.80;;
6259;SDS011;3163;51.516;4.000;2022-11-15T14:39:13;1.47;;;0.73;;
6259;SDS011;3163;51.516;4.000;2022-11-15T14:41:39;1.03;;;0.83;;
6259;SDS011;3163;51.516;4.000;2022-11-15T14:44:05;3.03;;;0.80;;
6259;SDS011;3163;51.516;4.000;2022-11-15T14:46:31;0.77;;;0.77;;
6259;SDS011;3163;51.516;4.000;2022-11-15T14:48:57;0.60;;;0.60;;
6259;SDS011;3163;51.516;4.000;2022-11-15T14:51:24;1.90;;;1.03;;
6259;SDS011;3163;51.516;4.000;2022-11-15T14:53:51;3.45;;;1.35;;
6259;SDS011;3163;51.516;4.000;2022-11-15T14:56:17;3.43;;;1.10;;
6259;SDS011;3163;51.516;4.000;2022-11-15T14:58:43;4.40;;;1.30;;
6259;SDS011;3163;51.516;4.000;2022-11-15T15:01:13;2.87;;;1.00;;
6259;SDS011;3163;51.516;4.000;2022-11-15T15:03:39;8.13;;;1.47;;
6259;SDS011;3163;51.516;4.000;2022-11-15T15:06:05;1.00;;;0.93;;
6259;SDS011;3163;51.516;4.000;2022-11-15T15:08:33;3.93;;;1.17;;
6259;SDS011;3163;51.516;4.000;2022-11-15T15:10:59;4.10;;;1.57;;
6259;SDS011;3163;51.516;4.000;2022-11-15T15:13:25;2.30;;;1.00;;
6259;SDS011;3163;51.516;4.000;2022-11-15T15:15:51;1.33;;;0.87;;
6259;SDS011;3163;51.516;4.000;2022-11-15T15:18:18;1.70;;;0.90;;
6259;SDS011;3163;51.516;4.000;2022-11-15T15:20:44;1.90;;;0.73;;
6259;SDS011;3163;51.516;4.000;2022-11-15T15:23:15;1.73;;;0.87;;
6259;SDS011;3163;51.516;4.000;2022-11-15T15:25:41;4.27;;;1.50;;
6259;SDS011;3163;51.516;4.000;2022-11-15T15:28:08;2.00;;;1.20;;
6259;SDS011;3163;51.516;4.000;2022-11-15T15:30:34;0.90;;;0.90;;
6259;SDS011;3163;51.516;4.000;2022-11-15T15:33:00;5.87;;;1.40;;
6259;SDS011;3163;51.516;4.000;2022-11-15T15:35:28;1.10;;;0.80;;
6259;SDS011;3163;51.516;4.000;2022-11-15T15:37:55;8.23;;;0.90;;
6259;SDS011;3163;51.516;4.000;2022-11-15T15:40:21;2.47;;;1.13;;
6259;SDS011;3163;51.516;4.000;2022-11-15T15:42:48;1.63;;;1.33;;
6259;SDS011;3163;51.516;4.000;2022-11-15T15:45:15;0.97;;;0.70;;
6259;SDS011;3163;51.516;4.000;2022-11-15T15:47:41;3.23;;;1.03;;
6259;SDS011;3163;51.516;4.000;2022-11-15T15:52:39;2.07;;;1.07;;
6259;SDS011;3163;51.516;4.000;2022-11-15T15:55:05;2.85;;;1.15;;
6259;SDS011;3163;51.516;4.000;2022-11-15T15:57:31;1.10;;;1.00;;
6259;SDS011;3163;51.516;4.000;2022-11-15T15:59:57;2.63;;;1.37;;
6259;SDS011;3163;51.516;4.000;2022-11-15T16:02:23;0.90;;;0.70;;
6259;SDS011;3163;51.516;4.000;2022-11-15T16:04:49;3.53;;;1.17;;
6259;SDS011;3163;51.516;4.000;2022-11-15T16:07:16;2.40;;;1.10;;
6259;SDS011;3163;51.516;4.000;2022-11-15T16:09:43;1.70;;;1.23;;
6259;SDS011;3163;51.516;4.000;2022-11-15T16:12:32;4.57;;;0.87;;
6259;SDS011;3163;51.516;4.000;2022-11-15T16:14:58;1.13;;;0.90;;
6259;SDS011;3163;51.516;4.000;2022-11-15T16:17:25;5.70;;;1.93;;
6259;SDS011;3163;51.516;4.000;2022-11-15T16:19:52;1.27;;;1.00;;
6259;SDS011;3163;51.516;4.000;2022-11-15T16:22:18;2.67;;;1.43;;
6259;SDS011;3163;51.516;4.000;2022-11-15T16:24:44;1.30;;;1.20;;
6259;SDS011;3163;51.516;4.000;2022-11-15T16:27:16;2.73;;;1.27;;
6259;SDS011;3163;51.516;4.000;2022-11-15T16:29:43;1.57;;;1.17;;
6259;SDS011;3163;51.516;4.000;2022-11-15T16:32:09;3.53;;;1.47;;
6259;SDS011;3163;51.516;4.000;2022-11-15T16:34:36;1.63;;;1.00;;
6259;SDS011;3163;51.516;4.000;2022-11-15T16:37:02;2.00;;;0.90;;
6259;SDS011;3163;51.516;4.000;2022-11-15T16:39:28;1.70;;;1.10;;
6259;SDS011;3163;51.516;4.000;2022-11-15T16:41:57;1.90;;;0.60;;
6259;SDS011;3163;51.516;4.000;2022-11-15T16:44:24;1.60;;;1.00;;
6259;SDS011;3163;51.516;4.000;2022-11-15T16:46:50;1.27;;;0.87;;
6259;SDS011;3163;51.516;4.000;2022-11-15T16:49:16;1.77;;;1.40;;
6259;SDS011;3163;51.516;4.000;2022-11-15T16:51:46;2.90;;;1.97;;
6259;SDS011;3163;51.516;4.000;2022-11-15T16:54:13;2.07;;;1.97;;
6259;SDS011;3163;51.516;4.000;2022-11-15T16:56:39;2.07;;;1.87;;
6259;SDS011;3163;51.516;4.000;2022-11-15T16:59:05;2.10;;;2.00;;
6259;SDS011;3163;51.516;4.000;2022-11-15T17:03:58;4.87;;;1.63;;
6259;SDS011;3163;51.516;4.000;2022-11-15T17:06:36;1.53;;;1.43;;
6259;SDS011;3163;51.516;4.000;2022-11-15T17:09:02;2.17;;;1.87;;
6259;SDS011;3163;51.516;4.000;2022-11-15T17:11:28;3.03;;;1.60;;
6259;SDS011;3163;51.516;4.000;2022-11-15T17:13:57;2.20;;;1.93;;
6259;SDS011;3163;51.516;4.000;2022-11-15T17:16:23;2.37;;;1.63;;
6259;SDS011;3163;51.516;4.000;2022-11-15T17:18:50;4.73;;;2.00;;
6259;SDS011;3163;51.516;4.000;2022-11-15T17:21:17;2.13;;;1.53;;
6259;SDS011;3163;51.516;4.000;2022-11-15T17:23:43;3.77;;;2.23;;
6259;SDS011;3163;51.516;4.000;2022-11-15T17:26:10;2.43;;;2.07;;
6259;SDS011;3163;51.516;4.000;2022-11-15T17:28:37;3.20;;;2.07;;
6259;SDS011;3163;51.516;4.000;2022-11-15T17:31:07;1.83;;;1.70;;
6259;SDS011;3163;51.516;4.000;2022-11-15T17:33:33;2.50;;;1.60;;
6259;SDS011;3163;51.516;4.000;2022-11-15T17:36:00;2.73;;;1.50;;
6259;SDS011;3163;51.516;4.000;2022-11-15T17:38:26;1.80;;;1.60;;
6259;SDS011;3163;51.516;4.000;2022-11-15T17:40:59;2.30;;;1.60;;
6259;SDS011;3163;51.516;4.000;2022-11-15T17:43:26;2.93;;;1.70;;